sensor_id;sensor_type;location;lat;lon;timestamp;pressure;altitude;pressure_sealevel;temperature;humidity
47220;BME280;32961;51.936;4.788;2023-04-27T00:02:18;102107.63;;;5.79;75.04
47220;BME280;32961;51.936;4.788;2023-04-27T00:04:46;102113.97;;;5.78;74.48
47220;BME280;32961;51.936;4.788;2023-04-27T00:07:14;102109.72;;;5.74;75.19
47220;BME280;32961;51.936;4.788;2023-04-27T00:09:42;102123.19;;;5.74;75.34
47220;BME280;32961;51.936;4.788;2023-04-27T00:12:09;102117.00;;;5.72;74.93
47220;BME280;32961;51.936;4.788;2023-04-27T00:14:39;102111.94;;;5.66;75.07
47220;BME280;32961;51.936;4.788;2023-04-27T00:17:07;102119.31;;;5.62;74.82
47220;BME280;32961;51.936;4.788;2023-04-27T00:19:35;102107.00;;;5.56;75.53
47220;BME280;32961;51.936;4.788;2023-04-27T00:22:02;102106.25;;;5.54;76.14
47220;BME280;32961;51.936;4.788;2023-04-27T00:24:31;102109.88;;;5.53;76.38
47220;BME280;32961;51.936;4.788;2023-04-27T00:26:59;102110.84;;;5.52;76.23
47220;BME280;32961;51.936;4.788;2023-04-27T00:29:28;102109.31;;;5.46;76.62
47220;BME280;32961;51.936;4.788;2023-04-27T00:31:57;102115.50;;;5.49;76.19
47220;BME280;32961;51.936;4.788;2023-04-27T00:34:25;102106.72;;;5.45;76.48
47220;BME280;32961;51.936;4.788;2023-04-27T00:36:53;102100.06;;;5.35;76.37
47220;BME280;32961;51.936;4.788;2023-04-27T00:39:21;102106.94;;;5.40;76.25
47220;BME280;32961;51.936;4.788;2023-04-27T00:41:48;102098.06;;;5.38;76.24
47220;BME280;32961;51.936;4.788;2023-04-27T00:44:21;102104.47;;;5.36;76.40
47220;BME280;32961;51.936;4.788;2023-04-27T00:46:49;102108.16;;;5.35;76.48
47220;BME280;32961;51.936;4.788;2023-04-27T00:49:19;102099.28;;;5.33;76.25
47220;BME280;32961;51.936;4.788;2023-04-27T00:51:47;102090.47;;;5.29;76.09
47220;BME280;32961;51.936;4.788;2023-04-27T00:54:18;102095.16;;;5.25;76.47
47220;BME280;32961;51.936;4.788;2023-04-27T00:56:47;102097.03;;;5.23;76.17
47220;BME280;32961;51.936;4.788;2023-04-27T00:59:16;102089.34;;;5.16;75.88
47220;BME280;32961;51.936;4.788;2023-04-27T01:01:44;102083.03;;;5.17;76.19
47220;BME280;32961;51.936;4.788;2023-04-27T01:04:14;102089.34;;;5.16;76.38
47220;BME280;32961;51.936;4.788;2023-04-27T01:06:45;102042.44;;;4.85;75.93
47220;BME280;32961;51.936;4.788;2023-04-27T01:09:12;102093.22;;;5.10;75.78
47220;BME280;32961;51.936;4.788;2023-04-27T01:11:42;102091.75;;;5.04;76.16
47220;BME280;32961;51.936;4.788;2023-04-27T01:14:09;102082.22;;;4.97;75.86
47220;BME280;32961;51.936;4.788;2023-04-27T01:16:37;102099.88;;;5.03;75.84
47220;BME280;32961;51.936;4.788;2023-04-27T01:19:06;102083.25;;;4.94;76.20
47220;BME280;32961;51.936;4.788;2023-04-27T01:21:34;102085.78;;;4.97;76.49
47220;BME280;32961;51.936;4.788;2023-04-27T01:24:05;102080.56;;;4.94;75.50
47220;BME280;32961;51.936;4.788;2023-04-27T01:26:33;102081.59;;;4.92;76.27
47220;BME280;32961;51.936;4.788;2023-04-27T01:29:01;102078.00;;;4.91;76.95
47220;BME280;32961;51.936;4.788;2023-04-27T01:31:29;102072.78;;;4.88;76.30
47220;BME280;32961;51.936;4.788;2023-04-27T01:33:57;102079.91;;;4.89;77.04
47220;BME280;32961;51.936;4.788;2023-04-27T01:36:25;102072.84;;;4.87;77.00
47220;BME280;32961;51.936;4.788;2023-04-27T01:38:53;102072.94;;;4.85;77.28
47220;BME280;32961;51.936;4.788;2023-04-27T01:41:22;102065.16;;;4.79;77.10
47220;BME280;32961;51.936;4.788;2023-04-27T01:43:51;102071.19;;;4.84;77.51
47220;BME280;32961;51.936;4.788;2023-04-27T01:46:19;102074.81;;;4.83;77.37
47220;BME280;32961;51.936;4.788;2023-04-27T01:48:47;102054.59;;;4.74;77.77
47220;BME280;32961;51.936;4.788;2023-04-27T01:51:15;102072.38;;;4.78;77.59
47220;BME280;32961;51.936;4.788;2023-04-27T01:53:43;102071.66;;;4.75;77.74
47220;BME280;32961;51.936;4.788;2023-04-27T01:56:11;102073.53;;;4.73;77.94
47220;BME280;32961;51.936;4.788;2023-04-27T01:58:40;102070.00;;;4.72;78.10
47220;BME280;32961;51.936;4.788;2023-04-27T02:01:08;102070.13;;;4.69;77.94
47220;BME280;32961;51.936;4.788;2023-04-27T02:03:37;102078.19;;;4.69;78.00
47220;BME280;32961;51.936;4.788;2023-04-27T02:06:05;102067.53;;;4.68;77.99
47220;BME280;32961;51.936;4.788;2023-04-27T02:08:33;102072.09;;;4.65;77.58
47220;BME280;32961;51.936;4.788;2023-04-27T02:11:01;102073.97;;;4.63;77.81
47220;BME280;32961;51.936;4.788;2023-04-27T02:13:29;102065.91;;;4.63;78.25
47220;BME280;32961;51.936;4.788;2023-04-27T02:15:58;102071.28;;;4.63;78.24
47220;BME280;32961;51.936;4.788;2023-04-27T02:18:27;102074.06;;;4.62;78.12
47220;BME280;32961;51.936;4.788;2023-04-27T02:20:55;102067.91;;;4.60;78.39
47220;BME280;32961;51.936;4.788;2023-04-27T02:23:23;102054.66;;;4.55;78.01
47220;BME280;32961;51.936;4.788;2023-04-27T02:25:51;102064.63;;;4.53;78.49
47220;BME280;32961;51.936;4.788;2023-04-27T02:28:18;102056.94;;;4.45;78.11
47220;BME280;32961;51.936;4.788;2023-04-27T02:30:47;102058.69;;;4.46;78.32
47220;BME280;32961;51.936;4.788;2023-04-27T02:33:16;102057.88;;;4.44;78.32
47220;BME280;32961;51.936;4.788;2023-04-27T02:35:44;102058.09;;;4.40;77.85
47220;BME280;32961;51.936;4.788;2023-04-27T02:38:11;102057.00;;;4.44;78.64
47220;BME280;32961;51.936;4.788;2023-04-27T02:40:39;102056.13;;;4.43;78.75
47220;BME280;32961;51.936;4.788;2023-04-27T02:43:07;102045.53;;;4.40;78.92
47220;BME280;32961;51.936;4.788;2023-04-27T02:45:36;102049.09;;;4.41;78.88
47220;BME280;32961;51.936;4.788;2023-04-27T02:48:05;102051.06;;;4.37;78.66
47220;BME280;32961;51.936;4.788;2023-04-27T02:50:39;102048.44;;;4.36;78.89
47220;BME280;32961;51.936;4.788;2023-04-27T02:53:07;102048.56;;;4.32;78.82
47220;BME280;32961;51.936;4.788;2023-04-27T02:55:35;102049.59;;;4.30;79.20
47220;BME280;32961;51.936;4.788;2023-04-27T02:58:03;102054.97;;;4.30;78.98
47220;BME280;32961;51.936;4.788;2023-04-27T03:00:31;102060.38;;;4.30;79.06
47220;BME280;32961;51.936;4.788;2023-04-27T03:02:59;102057.88;;;4.25;79.00
47220;BME280;32961;51.936;4.788;2023-04-27T03:05:27;102059.81;;;4.23;79.34
47220;BME280;32961;51.936;4.788;2023-04-27T03:07:58;102052.81;;;4.19;78.94
47220;BME280;32961;51.936;4.788;2023-04-27T03:10:26;102059.06;;;4.20;79.23
47220;BME280;32961;51.936;4.788;2023-04-27T03:12:54;102065.31;;;4.20;79.32
47220;BME280;32961;51.936;4.788;2023-04-27T03:15:22;102058.19;;;4.19;79.37
47220;BME280;32961;51.936;4.788;2023-04-27T03:17:50;102066.19;;;4.21;79.09
47220;BME280;32961;51.936;4.788;2023-04-27T03:20:18;102042.53;;;4.08;78.94
47220;BME280;32961;51.936;4.788;2023-04-27T03:22:46;102060.22;;;4.14;79.46
47220;BME280;32961;51.936;4.788;2023-04-27T03:25:15;102055.69;;;4.14;79.08
47220;BME280;32961;51.936;4.788;2023-04-27T03:27:43;102061.25;;;4.11;78.93
47220;BME280;32961;51.936;4.788;2023-04-27T03:30:12;102066.84;;;4.07;79.28
47220;BME280;32961;51.936;4.788;2023-04-27T03:32:39;102066.91;;;4.05;79.52
47220;BME280;32961;51.936;4.788;2023-04-27T03:35:08;102069.69;;;4.04;79.29
47220;BME280;32961;51.936;4.788;2023-04-27T03:37:36;102053.88;;;3.96;79.54
47220;BME280;32961;51.936;4.788;2023-04-27T03:40:05;102057.50;;;3.95;79.38
47220;BME280;32961;51.936;4.788;2023-04-27T03:42:35;102063.72;;;3.97;79.58
47220;BME280;32961;51.936;4.788;2023-04-27T03:45:03;102063.06;;;3.92;79.77
47220;BME280;32961;51.936;4.788;2023-04-27T03:47:32;102057.75;;;3.90;79.54
47220;BME280;32961;51.936;4.788;2023-04-27T03:49:59;102043.06;;;3.78;79.82
47220;BME280;32961;51.936;4.788;2023-04-27T03:52:27;102068.50;;;3.90;79.69
47220;BME280;32961;51.936;4.788;2023-04-27T03:54:55;102064.88;;;3.91;79.70
47220;BME280;32961;51.936;4.788;2023-04-27T03:57:23;102072.13;;;3.89;79.93
47220;BME280;32961;51.936;4.788;2023-04-27T03:59:52;102073.88;;;3.90;79.86
47220;BME280;32961;51.936;4.788;2023-04-27T04:02:20;102078.25;;;3.93;79.81
47220;BME280;32961;51.936;4.788;2023-04-27T04:04:49;102072.13;;;3.89;79.73
47220;BME280;32961;51.936;4.788;2023-04-27T04:07:17;102084.56;;;3.92;79.62
47220;BME280;32961;51.936;4.788;2023-04-27T04:09:45;102065.28;;;3.82;79.87
47220;BME280;32961;51.936;4.788;2023-04-27T04:12:13;102086.41;;;3.91;79.73
47220;BME280;32961;51.936;4.788;2023-04-27T04:14:40;102084.66;;;3.90;79.88
47220;BME280;32961;51.936;4.788;2023-04-27T04:17:10;102086.44;;;3.90;79.61
47220;BME280;32961;51.936;4.788;2023-04-27T04:19:38;102084.78;;;3.87;79.93
47220;BME280;32961;51.936;4.788;2023-04-27T04:22:06;102075.84;;;3.87;80.08
47220;BME280;32961;51.936;4.788;2023-04-27T04:24:34;102079.47;;;3.85;80.02
47220;BME280;32961;51.936;4.788;2023-04-27T04:27:03;102087.53;;;3.85;80.02
47220;BME280;32961;51.936;4.788;2023-04-27T04:29:30;102085.94;;;3.81;80.08
47220;BME280;32961;51.936;4.788;2023-04-27T04:31:59;102088.56;;;3.83;80.19
47220;BME280;32961;51.936;4.788;2023-04-27T04:34:28;102086.81;;;3.82;80.17
47220;BME280;32961;51.936;4.788;2023-04-27T04:36:56;102079.47;;;3.85;79.88
47220;BME280;32961;51.936;4.788;2023-04-27T04:39:24;102083.19;;;3.83;80.03
47220;BME280;32961;51.936;4.788;2023-04-27T04:41:52;102092.03;;;3.85;80.29
47220;BME280;32961;51.936;4.788;2023-04-27T04:44:20;102095.97;;;3.78;80.58
47220;BME280;32961;51.936;4.788;2023-04-27T04:46:48;102108.44;;;3.79;80.31
47220;BME280;32961;51.936;4.788;2023-04-27T04:49:16;102110.25;;;3.78;80.66
47220;BME280;32961;51.936;4.788;2023-04-27T04:51:45;102110.25;;;3.78;80.76
47220;BME280;32961;51.936;4.788;2023-04-27T04:54:13;102103.13;;;3.77;80.72
47220;BME280;32961;51.936;4.788;2023-04-27T04:56:41;102111.09;;;3.80;80.68
47220;BME280;32961;51.936;4.788;2023-04-27T04:59:09;102118.25;;;3.80;80.45
47220;BME280;32961;51.936;4.788;2023-04-27T05:01:38;102110.34;;;3.77;80.90
47220;BME280;32961;51.936;4.788;2023-04-27T05:04:05;102114.72;;;3.79;81.29
47220;BME280;32961;51.936;4.788;2023-04-27T05:06:33;102106.56;;;3.81;81.42
47220;BME280;32961;51.936;4.788;2023-04-27T05:09:03;102108.25;;;3.83;81.03
47220;BME280;32961;51.936;4.788;2023-04-27T05:11:31;102113.69;;;3.82;81.64
47220;BME280;32961;51.936;4.788;2023-04-27T05:13:59;102102.13;;;3.80;81.83
47220;BME280;32961;51.936;4.788;2023-04-27T05:16:27;102107.50;;;3.80;81.56
47220;BME280;32961;51.936;4.788;2023-04-27T05:18:55;102122.69;;;3.81;81.97
47220;BME280;32961;51.936;4.788;2023-04-27T05:21:23;102123.44;;;3.84;82.04
47220;BME280;32961;51.936;4.788;2023-04-27T05:23:51;102110.00;;;3.84;81.83
47220;BME280;32961;51.936;4.788;2023-04-27T05:26:20;102121.28;;;3.93;82.10
47220;BME280;32961;51.936;4.788;2023-04-27T05:28:48;102122.00;;;3.96;82.21
47220;BME280;32961;51.936;4.788;2023-04-27T05:31:16;102119.25;;;3.98;82.08
47220;BME280;32961;51.936;4.788;2023-04-27T05:33:44;102124.50;;;4.01;82.16
47220;BME280;32961;51.936;4.788;2023-04-27T05:36:12;102115.41;;;4.04;82.40
47220;BME280;32961;51.936;4.788;2023-04-27T05:38:39;102125.16;;;4.06;82.49
47220;BME280;32961;51.936;4.788;2023-04-27T05:41:08;102118.75;;;4.09;82.43
47220;BME280;32961;51.936;4.788;2023-04-27T05:43:37;102116.88;;;4.11;82.18
47220;BME280;32961;51.936;4.788;2023-04-27T05:46:05;102115.03;;;4.11;82.58
47220;BME280;32961;51.936;4.788;2023-04-27T05:48:33;102112.06;;;4.17;82.78
47220;BME280;32961;51.936;4.788;2023-04-27T05:51:02;102117.25;;;4.22;82.41
47220;BME280;32961;51.936;4.788;2023-04-27T05:53:31;102106.59;;;4.19;82.69
47220;BME280;32961;51.936;4.788;2023-04-27T05:55:59;102119.63;;;4.28;82.70
47220;BME280;32961;51.936;4.788;2023-04-27T05:58:29;102131.06;;;4.33;83.02
47220;BME280;32961;51.936;4.788;2023-04-27T06:00:59;102124.44;;;4.41;82.90
47220;BME280;32961;51.936;4.788;2023-04-27T06:03:28;102135.63;;;4.50;82.96
47220;BME280;32961;51.936;4.788;2023-04-27T06:05:57;102124.56;;;4.57;83.03
47220;BME280;32961;51.936;4.788;2023-04-27T06:08:26;102125.94;;;4.65;83.39
47220;BME280;32961;51.936;4.788;2023-04-27T06:10:55;102126.38;;;4.75;83.13
47220;BME280;32961;51.936;4.788;2023-04-27T06:13:23;102134.06;;;4.83;82.76
47220;BME280;32961;51.936;4.788;2023-04-27T06:15:50;102133.63;;;4.92;82.57
47220;BME280;32961;51.936;4.788;2023-04-27T06:18:20;102132.16;;;5.04;82.33
47220;BME280;32961;51.936;4.788;2023-04-27T06:20:47;102130.94;;;5.10;81.91
47220;BME280;32961;51.936;4.788;2023-04-27T06:23:16;102129.31;;;5.25;81.73
47220;BME280;32961;51.936;4.788;2023-04-27T06:25:44;102132.25;;;5.38;81.40
47220;BME280;32961;51.936;4.788;2023-04-27T06:28:12;102137.09;;;5.49;81.92
47220;BME280;32961;51.936;4.788;2023-04-27T06:30:39;102135.50;;;5.62;81.13
47220;BME280;32961;51.936;4.788;2023-04-27T06:33:07;102127.69;;;5.73;80.91
47220;BME280;32961;51.936;4.788;2023-04-27T06:35:37;102124.19;;;5.89;80.40
47220;BME280;32961;51.936;4.788;2023-04-27T06:38:05;102131.75;;;6.00;80.15
47220;BME280;32961;51.936;4.788;2023-04-27T06:40:34;102111.63;;;6.05;79.07
47220;BME280;32961;51.936;4.788;2023-04-27T06:43:02;102116.09;;;6.22;78.71
47220;BME280;32961;51.936;4.788;2023-04-27T06:45:30;102123.28;;;6.39;77.52
47220;BME280;32961;51.936;4.788;2023-04-27T06:47:58;102115.38;;;6.52;77.01
47220;BME280;32961;51.936;4.788;2023-04-27T06:50:26;102117.28;;;6.66;76.42
47220;BME280;32961;51.936;4.788;2023-04-27T06:52:56;102122.06;;;6.77;74.83
47220;BME280;32961;51.936;4.788;2023-04-27T06:55:23;102117.16;;;6.84;73.88
47220;BME280;32961;51.936;4.788;2023-04-27T06:57:51;102122.19;;;6.90;72.67
47220;BME280;32961;51.936;4.788;2023-04-27T07:00:20;102119.06;;;6.98;72.46
47220;BME280;32961;51.936;4.788;2023-04-27T07:02:48;102123.06;;;7.06;72.31
47220;BME280;32961;51.936;4.788;2023-04-27T07:05:17;102103.69;;;7.14;73.35
47220;BME280;32961;51.936;4.788;2023-04-27T07:07:45;102117.25;;;7.29;72.52
47220;BME280;32961;51.936;4.788;2023-04-27T07:10:14;102115.72;;;7.39;71.37
47220;BME280;32961;51.936;4.788;2023-04-27T07:12:42;102096.03;;;7.37;69.53
47220;BME280;32961;51.936;4.788;2023-04-27T07:15:10;102121.59;;;7.62;68.86
47220;BME280;32961;51.936;4.788;2023-04-27T07:17:38;102109.81;;;7.63;67.79
47220;BME280;32961;51.936;4.788;2023-04-27T07:20:07;102111.25;;;7.83;67.49
47220;BME280;32961;51.936;4.788;2023-04-27T07:22:35;102108.47;;;7.84;64.98
47220;BME280;32961;51.936;4.788;2023-04-27T07:25:04;102113.47;;;7.91;63.80
47220;BME280;32961;51.936;4.788;2023-04-27T07:27:33;102120.75;;;7.90;64.32
47220;BME280;32961;51.936;4.788;2023-04-27T07:30:02;102116.41;;;8.02;64.63
47220;BME280;32961;51.936;4.788;2023-04-27T07:32:30;102107.78;;;8.10;64.06
47220;BME280;32961;51.936;4.788;2023-04-27T07:34:58;102103.22;;;8.25;64.71
47220;BME280;32961;51.936;4.788;2023-04-27T07:37:26;102120.03;;;8.44;64.59
47220;BME280;32961;51.936;4.788;2023-04-27T07:39:54;102100.03;;;8.47;64.07
47220;BME280;32961;51.936;4.788;2023-04-27T07:42:23;102103.78;;;8.59;63.52
47220;BME280;32961;51.936;4.788;2023-04-27T07:44:52;102108.50;;;8.70;62.30
47220;BME280;32961;51.936;4.788;2023-04-27T07:47:20;102114.50;;;8.75;61.19
47220;BME280;32961;51.936;4.788;2023-04-27T07:49:48;102119.69;;;8.78;62.11
47220;BME280;32961;51.936;4.788;2023-04-27T07:52:18;102123.44;;;8.90;61.41
47220;BME280;32961;51.936;4.788;2023-04-27T07:54:46;102117.81;;;8.93;61.93
47220;BME280;32961;51.936;4.788;2023-04-27T07:57:14;102121.75;;;9.02;61.79
47220;BME280;32961;51.936;4.788;2023-04-27T07:59:42;102105.94;;;9.08;62.19
47220;BME280;32961;51.936;4.788;2023-04-27T08:02:11;102101.06;;;9.13;61.59
47220;BME280;32961;51.936;4.788;2023-04-27T08:04:46;102104.34;;;9.19;61.51
47220;BME280;32961;51.936;4.788;2023-04-27T08:07:20;102096.09;;;9.20;61.80
47220;BME280;32961;51.936;4.788;2023-04-27T08:09:49;102121.66;;;9.43;61.90
47220;BME280;32961;51.936;4.788;2023-04-27T08:12:17;102115.69;;;9.51;61.09
47220;BME280;32961;51.936;4.788;2023-04-27T08:14:46;102109.75;;;9.59;61.24
47220;BME280;32961;51.936;4.788;2023-04-27T08:17:15;102111.25;;;9.76;60.32
47220;BME280;32961;51.936;4.788;2023-04-27T08:19:44;102106.81;;;9.88;60.21
47220;BME280;32961;51.936;4.788;2023-04-27T08:22:12;102096.41;;;9.94;58.60
47220;BME280;32961;51.936;4.788;2023-04-27T08:24:40;102093.97;;;10.03;57.51
47220;BME280;32961;51.936;4.788;2023-04-27T08:27:08;102093.88;;;10.04;55.42
47220;BME280;32961;51.936;4.788;2023-04-27T08:29:36;102088.34;;;9.93;57.08
47220;BME280;32961;51.936;4.788;2023-04-27T08:32:04;102096.25;;;10.09;57.48
47220;BME280;32961;51.936;4.788;2023-04-27T08:34:34;102106.47;;;10.18;57.02
47220;BME280;32961;51.936;4.788;2023-04-27T08:37:01;102104.06;;;10.26;56.66
47220;BME280;32961;51.936;4.788;2023-04-27T08:39:30;102107.31;;;10.32;55.75
47220;BME280;32961;51.936;4.788;2023-04-27T08:41:58;102102.97;;;10.29;54.71
47220;BME280;32961;51.936;4.788;2023-04-27T08:44:26;102101.88;;;10.32;54.30
47220;BME280;32961;51.936;4.788;2023-04-27T08:46:54;102095.34;;;10.34;54.78
47220;BME280;32961;51.936;4.788;2023-04-27T08:49:22;102099.38;;;10.41;53.15
47220;BME280;32961;51.936;4.788;2023-04-27T08:51:51;102093.63;;;10.46;54.17
47220;BME280;32961;51.936;4.788;2023-04-27T08:54:19;102092.81;;;10.57;53.89
47220;BME280;32961;51.936;4.788;2023-04-27T08:56:47;102100.06;;;10.69;54.09
47220;BME280;32961;51.936;4.788;2023-04-27T08:59:15;102101.44;;;10.75;52.64
47220;BME280;32961;51.936;4.788;2023-04-27T09:01:44;102098.31;;;10.68;52.56
47220;BME280;32961;51.936;4.788;2023-04-27T09:04:14;102095.78;;;10.78;51.24
47220;BME280;32961;51.936;4.788;2023-04-27T09:06:43;102099.16;;;10.82;51.33
47220;BME280;32961;51.936;4.788;2023-04-27T09:09:22;102077.47;;;10.80;51.34
47220;BME280;32961;51.936;4.788;2023-04-27T09:11:50;102092.31;;;11.00;51.98
47220;BME280;32961;51.936;4.788;2023-04-27T09:14:20;102102.25;;;11.13;51.32
47220;BME280;32961;51.936;4.788;2023-04-27T09:16:53;102088.69;;;11.24;51.40
47220;BME280;32961;51.936;4.788;2023-04-27T09:19:23;102093.28;;;11.35;50.90
47220;BME280;32961;51.936;4.788;2023-04-27T09:22:02;102094.94;;;11.49;50.73
47220;BME280;32961;51.936;4.788;2023-04-27T09:24:32;102094.09;;;11.60;49.61
47220;BME280;32961;51.936;4.788;2023-04-27T09:27:00;102082.09;;;11.62;50.26
47220;BME280;32961;51.936;4.788;2023-04-27T09:29:34;102080.88;;;11.66;49.77
47220;BME280;32961;51.936;4.788;2023-04-27T09:32:13;102082.22;;;11.72;49.02
47220;BME280;32961;51.936;4.788;2023-04-27T09:34:43;102081.25;;;11.84;48.82
47220;BME280;32961;51.936;4.788;2023-04-27T09:37:11;102068.78;;;11.93;48.92
47220;BME280;32961;51.936;4.788;2023-04-27T09:39:41;102076.09;;;12.04;48.65
47220;BME280;32961;51.936;4.788;2023-04-27T09:42:11;102073.75;;;12.11;48.93
47220;BME280;32961;51.936;4.788;2023-04-27T09:44:39;102088.72;;;12.05;46.96
47220;BME280;32961;51.936;4.788;2023-04-27T09:47:08;102091.59;;;12.03;46.44
47220;BME280;32961;51.936;4.788;2023-04-27T09:49:37;102092.06;;;12.09;45.70
47220;BME280;32961;51.936;4.788;2023-04-27T09:52:05;102078.22;;;12.12;46.93
47220;BME280;32961;51.936;4.788;2023-04-27T09:54:33;102061.00;;;12.11;47.13
47220;BME280;32961;51.936;4.788;2023-04-27T09:57:12;102085.50;;;12.34;45.82
47220;BME280;32961;51.936;4.788;2023-04-27T10:00:00;102083.13;;;12.41;46.46
47220;BME280;32961;51.936;4.788;2023-04-27T10:02:41;102071.09;;;12.55;46.64
47220;BME280;32961;51.936;4.788;2023-04-27T10:05:41;102079.81;;;12.81;45.46
47220;BME280;32961;51.936;4.788;2023-04-27T10:08:14;102083.09;;;12.96;45.55
47220;BME280;32961;51.936;4.788;2023-04-27T10:10:45;102077.72;;;13.06;45.44
47220;BME280;32961;51.936;4.788;2023-04-27T10:13:21;102069.16;;;13.10;43.07
47220;BME280;32961;51.936;4.788;2023-04-27T10:15:50;102071.44;;;13.05;42.43
47220;BME280;32961;51.936;4.788;2023-04-27T10:18:25;102070.06;;;12.99;42.44
47220;BME280;32961;51.936;4.788;2023-04-27T10:20:54;102068.09;;;13.02;42.73
47220;BME280;32961;51.936;4.788;2023-04-27T10:23:23;102061.13;;;13.09;41.44
47220;BME280;32961;51.936;4.788;2023-04-27T10:25:52;102064.00;;;13.28;42.78
47220;BME280;32961;51.936;4.788;2023-04-27T10:28:21;102075.34;;;13.45;40.38
47220;BME280;32961;51.936;4.788;2023-04-27T10:30:49;102073.56;;;13.55;41.72
47220;BME280;32961;51.936;4.788;2023-04-27T10:33:18;102076.34;;;13.65;41.43
47220;BME280;32961;51.936;4.788;2023-04-27T10:35:53;102073.66;;;13.75;39.56
47220;BME280;32961;51.936;4.788;2023-04-27T10:38:27;102067.75;;;13.70;40.34
47220;BME280;32961;51.936;4.788;2023-04-27T10:40:58;102057.41;;;13.73;40.53
47220;BME280;32961;51.936;4.788;2023-04-27T10:43:30;102062.06;;;13.83;40.53
47220;BME280;32961;51.936;4.788;2023-04-27T10:46:09;102050.91;;;13.95;41.35
47220;BME280;32961;51.936;4.788;2023-04-27T10:48:38;102026.22;;;14.07;40.62
47220;BME280;32961;51.936;4.788;2023-04-27T10:51:06;102040.47;;;14.10;38.65
47220;BME280;32961;51.936;4.788;2023-04-27T10:53:34;102052.72;;;14.26;38.88
47220;BME280;32961;51.936;4.788;2023-04-27T10:56:03;102024.06;;;14.10;37.92
47220;BME280;32961;51.936;4.788;2023-04-27T10:58:34;102035.69;;;14.12;36.03
47220;BME280;32961;51.936;4.788;2023-04-27T11:01:23;102044.03;;;14.11;37.20
47220;BME280;32961;51.936;4.788;2023-04-27T11:03:54;102036.41;;;14.05;36.39
47220;BME280;32961;51.936;4.788;2023-04-27T11:06:22;102023.34;;;13.77;36.34
47220;BME280;32961;51.936;4.788;2023-04-27T11:08:50;102041.34;;;13.80;37.38
47220;BME280;32961;51.936;4.788;2023-04-27T11:11:19;102034.53;;;13.74;37.63
47220;BME280;32961;51.936;4.788;2023-04-27T11:13:49;102017.78;;;13.89;36.97
47220;BME280;32961;51.936;4.788;2023-04-27T11:16:18;102028.13;;;13.85;36.65
47220;BME280;32961;51.936;4.788;2023-04-27T11:18:46;102025.25;;;13.87;37.75
47220;BME280;32961;51.936;4.788;2023-04-27T11:21:18;102024.63;;;14.04;38.67
47220;BME280;32961;51.936;4.788;2023-04-27T11:23:47;101992.53;;;14.06;37.94
47220;BME280;32961;51.936;4.788;2023-04-27T11:26:16;102025.00;;;14.40;37.00
47220;BME280;32961;51.936;4.788;2023-04-27T11:28:58;102008.72;;;14.29;37.01
47220;BME280;32961;51.936;4.788;2023-04-27T11:31:27;102023.00;;;14.42;37.40
47220;BME280;32961;51.936;4.788;2023-04-27T11:33:55;102020.56;;;14.59;37.47
47220;BME280;32961;51.936;4.788;2023-04-27T11:36:23;102021.34;;;14.81;36.92
47220;BME280;32961;51.936;4.788;2023-04-27T11:38:56;102024.50;;;14.96;36.88
47220;BME280;32961;51.936;4.788;2023-04-27T11:41:32;102007.22;;;15.05;35.48
47220;BME280;32961;51.936;4.788;2023-04-27T11:44:05;102010.22;;;15.02;34.61
47220;BME280;32961;51.936;4.788;2023-04-27T11:46:34;102003.31;;;15.07;35.12
47220;BME280;32961;51.936;4.788;2023-04-27T11:49:04;102002.28;;;15.18;34.30
47220;BME280;32961;51.936;4.788;2023-04-27T11:51:34;102007.59;;;15.30;34.89
47220;BME280;32961;51.936;4.788;2023-04-27T11:54:04;102007.72;;;15.48;35.38
47220;BME280;32961;51.936;4.788;2023-04-27T11:56:33;101973.97;;;15.47;35.71
47220;BME280;32961;51.936;4.788;2023-04-27T11:59:02;102001.84;;;15.70;33.56
47220;BME280;32961;51.936;4.788;2023-04-27T12:01:33;101991.28;;;15.48;34.49
47220;BME280;32961;51.936;4.788;2023-04-27T12:04:03;101991.66;;;15.63;34.57
47220;BME280;32961;51.936;4.788;2023-04-27T12:06:32;101987.19;;;15.62;32.97
47220;BME280;32961;51.936;4.788;2023-04-27T12:09:00;101984.75;;;15.59;32.47
47220;BME280;32961;51.936;4.788;2023-04-27T12:11:29;102000.72;;;15.63;33.57
47220;BME280;32961;51.936;4.788;2023-04-27T12:13:57;101998.13;;;15.62;32.54
47220;BME280;32961;51.936;4.788;2023-04-27T12:16:26;101984.81;;;15.39;33.78
47220;BME280;32961;51.936;4.788;2023-04-27T12:18:55;101996.78;;;15.38;34.10
47220;BME280;32961;51.936;4.788;2023-04-27T12:21:23;101995.06;;;15.37;34.92
47220;BME280;32961;51.936;4.788;2023-04-27T12:23:51;101979.91;;;15.43;33.87
47220;BME280;32961;51.936;4.788;2023-04-27T12:26:19;101986.66;;;15.48;34.35
47220;BME280;32961;51.936;4.788;2023-04-27T12:28:47;101985.97;;;15.46;33.29
47220;BME280;32961;51.936;4.788;2023-04-27T12:31:15;101979.38;;;15.29;34.25
47220;BME280;32961;51.936;4.788;2023-04-27T12:33:50;101968.25;;;15.31;34.07
47220;BME280;32961;51.936;4.788;2023-04-27T12:36:19;101974.28;;;15.44;32.75
47220;BME280;32961;51.936;4.788;2023-04-27T12:38:47;101971.38;;;15.46;32.61
47220;BME280;32961;51.936;4.788;2023-04-27T12:41:15;101960.38;;;15.55;33.34
47220;BME280;32961;51.936;4.788;2023-04-27T12:43:44;101962.53;;;15.62;33.22
47220;BME280;32961;51.936;4.788;2023-04-27T12:46:14;101964.34;;;15.43;32.36
47220;BME280;32961;51.936;4.788;2023-04-27T12:48:43;101963.38;;;15.24;32.76
47220;BME280;32961;51.936;4.788;2023-04-27T12:51:11;101958.44;;;15.38;33.24
47220;BME280;32961;51.936;4.788;2023-04-27T12:53:41;101970.28;;;15.29;32.40
47220;BME280;32961;51.936;4.788;2023-04-27T12:56:09;101935.31;;;15.13;33.15
47220;BME280;32961;51.936;4.788;2023-04-27T12:58:38;101957.47;;;15.29;32.92
47220;BME280;32961;51.936;4.788;2023-04-27T13:01:07;101938.00;;;15.22;33.43
47220;BME280;32961;51.936;4.788;2023-04-27T13:03:40;101947.66;;;15.36;33.38
47220;BME280;32961;51.936;4.788;2023-04-27T13:06:09;101953.00;;;15.28;32.84
47220;BME280;32961;51.936;4.788;2023-04-27T13:08:38;101953.03;;;15.08;33.70